Time;durP1;ratioP1;P1;durP2;ratioP2;P2;SDS_P1;SDS_P2;PMS_P1;PMS_P2;Temp;Humidity;BMP_temperature;BMP_pressure;BME280_temperature;BME280_humidity;BME280_pressure;Samples;Min_cycle;Max_cycle;Signal;HPM_P1;HPM_P2
2022/04/23 00:00:33;;;;;;;9.77;5.88;;;;;;;;;;5042276;28;20048;-64
2022/04/23 00:03:01;;;;;;;10.30;5.82;;;;;;;;;;5025661;28;20062;-64
2022/04/23 00:05:28;;;;;;;8.73;5.10;;;;;;;;;;5041559;28;20044;-64
2022/04/23 00:07:55;;;;;;;8.30;5.10;;;;;;;;;;5044246;28;20048;-65
2022/04/23 00:10:22;;;;;;;9.35;5.47;;;;;;;;;;5043805;28;20045;-64
2022/04/23 00:12:50;;;;;;;6.85;4.45;;;;;;;;;;5044157;28;20049;-65
2022/04/23 00:15:16;;;;;;;8.80;4.43;;;;;;;;;;5019598;28;20362;-65
2022/04/23 00:17:47;;;;;;;7.88;5.10;;;;;;;;;;5043410;28;20041;-64
2022/04/23 00:20:13;;;;;;;8.05;4.95;;;;;;;;;;5027554;28;20048;-64
2022/04/23 00:22:40;;;;;;;8.52;5.00;;;;;;;;;;5044356;28;20786;-64
2022/04/23 00:25:07;;;;;;;7.97;4.82;;;;;;;;;;5043613;28;20142;-64
2022/04/23 00:27:34;;;;;;;8.32;5.13;;;;;;;;;;5044434;28;20037;-64
2022/04/23 00:30:00;;;;;;;7.35;4.40;;;;;;;;;;5044975;28;20136;-63
2022/04/23 00:32:28;;;;;;;8.52;5.18;;;;;;;;;;5044463;28;20083;-63
2022/04/23 00:34:55;;;;;;;7.63;4.53;;;;;;;;;;5044118;28;20428;-63
2022/04/23 00:37:21;;;;;;;8.63;4.95;;;;;;;;;;5044569;28;20076;-63
2022/04/23 00:39:48;;;;;;;8.20;4.57;;;;;;;;;;5042143;28;20040;-63
2022/04/23 00:42:15;;;;;;;8.32;4.85;;;;;;;;;;5044780;28;20458;-64
2022/04/23 00:44:41;;;;;;;7.70;4.60;;;;;;;;;;5043528;28;20037;-63
2022/04/23 00:47:08;;;;;;;7.15;4.35;;;;;;;;;;5043088;28;20503;-63
2022/04/23 00:49:35;;;;;;;8.38;4.32;;;;;;;;;;5042144;28;20047;-63
2022/04/23 00:52:02;;;;;;;7.40;4.60;;;;;;;;;;5043913;28;20037;-63
2022/04/23 00:54:30;;;;;;;8.50;4.38;;;;;;;;;;5040726;28;20044;-63
2022/04/23 00:56:57;;;;;;;6.63;4.45;;;;;;;;;;5040205;28;20078;-64
2022/04/23 00:59:24;;;;;;;7.05;4.63;;;;;;;;;;5024085;28;20450;-63
2022/04/23 01:01:53;;;;;;;8.02;4.97;;;;;;;;;;5042684;28;20040;-61
2022/04/23 01:04:19;;;;;;;6.97;4.32;;;;;;;;;;5043272;28;20039;-63
2022/04/23 01:06:47;;;;;;;9.10;4.25;;;;;;;;;;5041907;28;20067;-62
2022/04/23 01:09:13;;;;;;;6.18;3.70;;;;;;;;;;5041212;28;20040;-62
2022/04/23 01:11:40;;;;;;;6.05;3.80;;;;;;;;;;5041975;28;20045;-62
2022/04/23 01:14:07;;;;;;;5.32;3.30;;;;;;;;;;5042396;28;20032;-63
2022/04/23 01:16:34;;;;;;;6.30;3.55;;;;;;;;;;5016308;28;20040;-63
2022/04/23 01:19:00;;;;;;;8.02;4.38;;;;;;;;;;5023647;28;20103;-63
2022/04/23 01:21:27;;;;;;;7.38;4.50;;;;;;;;;;5016228;28;20633;-63
2022/04/23 01:23:54;;;;;;;5.75;3.42;;;;;;;;;;5021379;28;20049;-63
2022/04/23 01:26:31;;;;;;;6.13;3.67;;;;;;;;;;5020290;28;20071;-62
2022/04/23 01:28:59;;;;;;;6.75;3.85;;;;;;;;;;5019827;28;20049;-63
2022/04/23 01:31:26;;;;;;;6.85;4.15;;;;;;;;;;5020591;28;20044;-63
2022/04/23 01:33:53;;;;;;;6.85;4.13;;;;;;;;;;5021224;28;20045;-63
2022/04/23 01:36:19;;;;;;;7.30;4.20;;;;;;;;;;5019848;28;20060;-63
2022/04/23 01:38:47;;;;;;;8.20;4.53;;;;;;;;;;5004393;28;20481;-63
2022/04/23 01:41:14;;;;;;;8.85;4.68;;;;;;;;;;5021078;28;20041;-63
2022/04/23 01:43:40;;;;;;;6.95;4.78;;;;;;;;;;5021047;28;20124;-64
2022/04/23 01:46:07;;;;;;;7.65;5.07;;;;;;;;;;5021665;28;20133;-63
2022/04/23 01:48:34;;;;;;;7.90;5.07;;;;;;;;;;5020208;28;20398;-63
2022/04/23 01:51:01;;;;;;;9.35;5.07;;;;;;;;;;5021118;28;20041;-63
2022/04/23 01:53:27;;;;;;;8.25;5.63;;;;;;;;;;5021323;28;20048;-63
2022/04/23 01:55:55;;;;;;;9.40;5.78;;;;;;;;;;5021348;28;20042;-63
2022/04/23 01:58:22;;;;;;;9.90;5.95;;;;;;;;;;5004167;28;20053;-63
2022/04/23 02:00:49;;;;;;;11.05;6.28;;;;;;;;;;5021228;28;20048;-63
2022/04/23 02:03:15;;;;;;;8.63;5.82;;;;;;;;;;5004408;28;20053;-65
2022/04/23 02:05:42;;;;;;;9.52;5.63;;;;;;;;;;5020171;28;20037;-64
2022/04/23 02:08:09;;;;;;;9.25;5.28;;;;;;;;;;5021974;28;20041;-64
2022/04/23 02:10:36;;;;;;;9.25;5.07;;;;;;;;;;5019181;28;20045;-62
2022/04/23 02:13:03;;;;;;;8.55;5.22;;;;;;;;;;5020216;28;20041;-65
2022/04/23 02:15:30;;;;;;;9.68;5.40;;;;;;;;;;5002867;28;20033;-65
2022/04/23 02:17:57;;;;;;;9.80;5.68;;;;;;;;;;5004192;28;20049;-65
2022/04/23 02:20:23;;;;;;;7.45;4.88;;;;;;;;;;5019748;28;20037;-65
2022/04/23 02:22:50;;;;;;;7.07;4.57;;;;;;;;;;5030639;28;20052;-65
2022/04/23 02:25:19;;;;;;;7.88;4.50;;;;;;;;;;5041785;28;20028;-64
2022/04/23 02:27:49;;;;;;;9.00;4.82;;;;;;;;;;5041229;28;20045;-63
2022/04/23 02:30:17;;;;;;;7.15;4.40;;;;;;;;;;5038913;28;20135;-64
2022/04/23 02:32:45;;;;;;;8.77;4.85;;;;;;;;;;5038891;28;20634;-64
2022/04/23 02:35:12;;;;;;;6.93;4.72;;;;;;;;;;5041143;28;20442;-64
2022/04/23 02:37:40;;;;;;;8.95;4.93;;;;;;;;;;5039791;28;20133;-64
2022/04/23 02:40:08;;;;;;;8.00;4.63;;;;;;;;;;5039681;28;20051;-64
2022/04/23 02:42:37;;;;;;;8.98;5.35;;;;;;;;;;5038597;28;20497;-65
2022/04/23 02:45:05;;;;;;;9.88;5.57;;;;;;;;;;5035175;28;20047;-64
2022/04/23 02:47:42;;;;;;;8.50;5.30;;;;;;;;;;5039685;28;21833;-64
2022/04/23 02:50:12;;;;;;;9.95;5.82;;;;;;;;;;5039059;28;20045;-64
2022/04/23 02:52:45;;;;;;;8.88;5.80;;;;;;;;;;5038677;28;20052;-64
2022/04/23 02:55:12;;;;;;;9.73;4.53;;;;;;;;;;5040574;28;20032;-64
2022/04/23 02:57:42;;;;;;;10.93;6.60;;;;;;;;;;5038727;28;20545;-64
2022/04/23 03:00:12;;;;;;;11.07;6.65;;;;;;;;;;5039688;28;20045;-64
2022/04/23 03:02:40;;;;;;;11.05;6.78;;;;;;;;;;5038138;28;20793;-64
2022/04/23 03:05:11;;;;;;;14.30;8.57;;;;;;;;;;5039529;28;20048;-65
2022/04/23 03:07:38;;;;;;;16.08;8.98;;;;;;;;;;5039634;28;20392;-65
2022/04/23 03:10:05;;;;;;;18.95;10.63;;;;;;;;;;5039162;28;20048;-64
2022/04/23 03:12:32;;;;;;;17.55;10.45;;;;;;;;;;5038474;28;20041;-64
2022/04/23 03:14:59;;;;;;;17.25;10.45;;;;;;;;;;5040156;28;20045;-63
2022/04/23 03:17:26;;;;;;;18.85;10.95;;;;;;;;;;5038899;28;20575;-63
2022/04/23 03:19:53;;;;;;;19.50;11.60;;;;;;;;;;5040521;28;20048;-64
2022/04/23 03:22:20;;;;;;;18.25;10.75;;;;;;;;;;5038599;28;20049;-63
2022/04/23 03:24:47;;;;;;;20.15;11.50;;;;;;;;;;5039238;28;20029;-64
2022/04/23 03:27:14;;;;;;;19.67;12.48;;;;;;;;;;5040561;28;20045;-64
2022/04/23 03:29:41;;;;;;;19.05;10.85;;;;;;;;;;5037863;28;20025;-64
2022/04/23 03:32:10;;;;;;;17.60;10.77;;;;;;;;;;5021043;28;20512;-66
2022/04/23 03:34:37;;;;;;;17.88;10.10;;;;;;;;;;5038775;28;20040;-65
2022/04/23 03:37:05;;;;;;;17.40;10.75;;;;;;;;;;5039245;28;20037;-65
2022/04/23 03:39:32;;;;;;;16.73;10.30;;;;;;;;;;5038171;28;20045;-64
2022/04/23 03:42:01;;;;;;;17.92;10.52;;;;;;;;;;5039183;28;20048;-64
2022/04/23 03:44:30;;;;;;;15.23;9.90;;;;;;;;;;5038833;28;20033;-63
2022/04/23 03:46:57;;;;;;;16.83;9.40;;;;;;;;;;5039253;28;20041;-63
2022/04/23 03:49:24;;;;;;;13.70;8.85;;;;;;;;;;5037581;28;20071;-63
2022/04/23 03:51:52;;;;;;;14.80;8.65;;;;;;;;;;5039495;28;20029;-64
2022/04/23 03:54:18;;;;;;;13.65;8.13;;;;;;;;;;5024508;28;20061;-64
2022/04/23 03:56:45;;;;;;;13.93;7.70;;;;;;;;;;5038840;28;20077;-63
2022/04/23 03:59:13;;;;;;;13.07;7.88;;;;;;;;;;5039973;28;20094;-64
2022/04/23 04:01:39;;;;;;;11.60;7.28;;;;;;;;;;5038165;28;20041;-63
2022/04/23 04:04:06;;;;;;;11.40;6.38;;;;;;;;;;5039553;28;20045;-63
2022/04/23 04:06:33;;;;;;;9.98;6.07;;;;;;;;;;5038472;28;20041;-64
2022/04/23 04:09:00;;;;;;;9.27;5.75;;;;;;;;;;5039789;28;20406;-64
2022/04/23 04:12:00;;;;;;;10.07;5.97;;;;;;;;;;5039614;28;21681;-64
2022/04/23 04:14:13;;;;;;;9.48;5.85;;;;;;;;;;5042238;28;20132;-64
2022/04/23 04:16:40;;;;;;;9.50;5.72;;;;;;;;;;5044027;28;20056;-64
2022/04/23 04:19:06;;;;;;;6.60;4.68;;;;;;;;;;5041461;28;20563;-64
2022/04/23 04:21:33;;;;;;;9.02;5.75;;;;;;;;;;5039384;28;20123;-64
2022/04/23 04:24:00;;;;;;;7.70;5.05;;;;;;;;;;5043851;28;20072;-64
2022/04/23 04:26:27;;;;;;;8.48;5.03;;;;;;;;;;5041753;28;20053;-64
2022/04/23 04:28:54;;;;;;;7.55;4.80;;;;;;;;;;5041459;28;20044;-64
2022/04/23 04:34:05;;;;;;;8.02;4.47;;;;;;;;;;5041984;28;20052;-64
2022/04/23 04:36:34;;;;;;;7.78;3.97;;;;;;;;;;5042137;28;20082;-64
2022/04/23 04:39:00;;;;;;;6.25;3.97;;;;;;;;;;5039296;28;20064;-64
2022/04/23 04:41:29;;;;;;;6.88;4.32;;;;;;;;;;5041154;28;20440;-64
2022/04/23 04:43:56;;;;;;;6.55;4.15;;;;;;;;;;5042145;28;20045;-64
2022/04/23 04:46:22;;;;;;;7.80;4.68;;;;;;;;;;5040753;28;20037;-63
2022/04/23 04:48:51;;;;;;;8.00;4.32;;;;;;;;;;5041591;28;20036;-66
2022/04/23 04:51:18;;;;;;;7.45;4.30;;;;;;;;;;5041884;28;20095;-63
2022/04/23 04:53:45;;;;;;;6.65;4.20;;;;;;;;;;5040670;28;20570;-63
2022/04/23 04:56:12;;;;;;;6.68;3.85;;;;;;;;;;5041608;28;20127;-64
2022/04/23 04:58:43;;;;;;;6.78;4.00;;;;;;;;;;5039427;28;20888;-64
2022/04/23 05:01:10;;;;;;;6.88;4.15;;;;;;;;;;5042021;28;20040;-64
2022/04/23 05:03:38;;;;;;;7.68;4.10;;;;;;;;;;5041210;28;20048;-64
2022/04/23 05:06:05;;;;;;;8.55;3.83;;;;;;;;;;5041296;28;20094;-64
2022/04/23 05:08:31;;;;;;;6.60;3.90;;;;;;;;;;5040993;28;20041;-64
2022/04/23 05:10:58;;;;;;;8.10;3.55;;;;;;;;;;5041461;28;20051;-64
2022/04/23 05:13:25;;;;;;;6.20;3.75;;;;;;;;;;5022499;28;20095;-64
2022/04/23 05:15:51;;;;;;;6.18;3.00;;;;;;;;;;5040070;28;20444;-64
2022/04/23 05:18:18;;;;;;;5.88;3.88;;;;;;;;;;5041735;28;20405;-64
2022/04/23 05:20:45;;;;;;;6.32;3.90;;;;;;;;;;5014167;28;20045;-64
2022/04/23 05:23:12;;;;;;;5.72;3.72;;;;;;;;;;5041034;28;20053;-64
2022/04/23 05:25:39;;;;;;;7.60;4.15;;;;;;;;;;4997551;28;20076;-64
2022/04/23 05:28:06;;;;;;;7.00;3.85;;;;;;;;;;5040681;28;20040;-64
2022/04/23 05:30:33;;;;;;;7.80;4.32;;;;;;;;;;5040021;28;20044;-63
2022/04/23 05:33:00;;;;;;;6.22;3.70;;;;;;;;;;5042259;28;20033;-63
2022/04/23 05:35:26;;;;;;;6.88;4.00;;;;;;;;;;5021840;28;20402;-63
2022/04/23 05:37:53;;;;;;;7.28;3.90;;;;;;;;;;5041469;28;20057;-63
2022/04/23 05:40:20;;;;;;;7.63;4.38;;;;;;;;;;5040699;28;20033;-63
2022/04/23 05:42:46;;;;;;;8.70;4.13;;;;;;;;;;5040946;28;20041;-64
2022/04/23 05:45:13;;;;;;;8.77;4.70;;;;;;;;;;5041327;28;20040;-64
2022/04/23 05:47:43;;;;;;;8.48;4.75;;;;;;;;;;5039447;28;20068;-64
2022/04/23 05:50:10;;;;;;;8.52;5.03;;;;;;;;;;5039820;28;20719;-64
2022/04/23 05:52:40;;;;;;;7.15;4.00;;;;;;;;;;5039438;28;20037;-64
2022/04/23 05:55:07;;;;;;;8.98;5.47;;;;;;;;;;5023863;28;20036;-64
2022/04/23 05:57:34;;;;;;;8.77;4.60;;;;;;;;;;5040062;28;20045;-63
2022/04/23 06:00:00;;;;;;;7.15;4.35;;;;;;;;;;5040712;28;20124;-64
2022/04/23 06:02:27;;;;;;;6.32;3.47;;;;;;;;;;5039534;28;20458;-64
2022/04/23 06:04:54;;;;;;;9.35;5.32;;;;;;;;;;5041914;28;20033;-64
2022/04/23 06:07:21;;;;;;;10.20;6.07;;;;;;;;;;5041385;28;20040;-65
2022/04/23 06:09:47;;;;;;;9.90;5.90;;;;;;;;;;5041798;28;20108;-64
2022/04/23 06:12:14;;;;;;;9.98;5.05;;;;;;;;;;5016650;28;20040;-64
2022/04/23 06:14:41;;;;;;;12.35;6.65;;;;;;;;;;5021907;28;20103;-64
2022/04/23 06:17:08;;;;;;;13.10;7.70;;;;;;;;;;5042026;28;20043;-63
2022/04/23 06:19:35;;;;;;;7.68;4.47;;;;;;;;;;5040448;28;20052;-63
2022/04/23 06:22:02;;;;;;;12.88;6.75;;;;;;;;;;5040705;28;20045;-63
2022/04/23 06:24:28;;;;;;;15.55;8.25;;;;;;;;;;5041212;28;20045;-63
2022/04/23 06:26:55;;;;;;;13.93;8.40;;;;;;;;;;5040951;28;20072;-64
2022/04/23 06:29:22;;;;;;;16.92;9.88;;;;;;;;;;5039849;28;20052;-63
2022/04/23 06:31:49;;;;;;;16.60;9.65;;;;;;;;;;5040636;28;20037;-63
2022/04/23 06:34:16;;;;;;;17.80;9.15;;;;;;;;;;5042263;28;20037;-63
2022/04/23 06:36:43;;;;;;;16.95;10.02;;;;;;;;;;5041426;28;20049;-63
2022/04/23 06:39:10;;;;;;;16.33;9.75;;;;;;;;;;5043499;28;20885;-63
2022/04/23 06:41:37;;;;;;;14.77;9.02;;;;;;;;;;5041710;28;20056;-64
2022/04/23 06:44:04;;;;;;;15.23;9.32;;;;;;;;;;5044009;28;20284;-63
2022/04/23 06:46:31;;;;;;;14.60;8.38;;;;;;;;;;5043086;28;20048;-63
2022/04/23 06:49:00;;;;;;;12.50;8.00;;;;;;;;;;5043162;28;20045;-64
2022/04/23 06:51:26;;;;;;;13.60;8.32;;;;;;;;;;5042291;28;20436;-63
2022/04/23 06:53:53;;;;;;;13.40;7.72;;;;;;;;;;5043158;28;20045;-63
2022/04/23 06:56:20;;;;;;;14.00;8.15;;;;;;;;;;5043771;28;20066;-63
2022/04/23 06:58:48;;;;;;;12.63;7.25;;;;;;;;;;5041400;28;20103;-63
2022/04/23 07:01:15;;;;;;;11.60;7.72;;;;;;;;;;5042157;28;20045;-64
2022/04/23 07:03:42;;;;;;;11.73;6.80;;;;;;;;;;5040707;28;20109;-63
2022/04/23 07:06:09;;;;;;;12.70;6.95;;;;;;;;;;5041562;28;20048;-64
2022/04/23 07:08:35;;;;;;;12.18;7.45;;;;;;;;;;5039956;28;20037;-63
2022/04/23 07:11:02;;;;;;;10.52;6.55;;;;;;;;;;5040927;28;20056;-63
2022/04/23 07:13:29;;;;;;;11.68;7.13;;;;;;;;;;5041628;28;20130;-64
2022/04/23 07:15:56;;;;;;;12.40;6.43;;;;;;;;;;5040528;28;20037;-64
2022/04/23 07:18:22;;;;;;;10.52;5.70;;;;;;;;;;5039689;28;20569;-64
2022/04/23 07:20:49;;;;;;;11.88;6.93;;;;;;;;;;5041798;28;20071;-64
2022/04/23 07:26:01;;;;;;;12.15;7.20;;;;;;;;;;5041713;28;20055;-64
2022/04/23 07:28:28;;;;;;;12.00;7.38;;;;;;;;;;5041043;28;20044;-65
2022/04/23 07:30:54;;;;;;;12.23;6.75;;;;;;;;;;5042435;28;20045;-63
2022/04/23 07:38:52;;;;;;;12.13;7.53;;;;;;;;;;5041880;28;21793;-62
2022/04/23 07:41:18;;;;;;;13.50;8.65;;;;;;;;;;5043473;28;20040;-62
2022/04/23 07:43:46;;;;;;;14.57;8.57;;;;;;;;;;5043968;28;20037;-62
2022/04/23 07:46:13;;;;;;;13.18;8.15;;;;;;;;;;5043427;28;20037;-62
2022/04/23 07:48:40;;;;;;;15.32;8.35;;;;;;;;;;5041103;28;20045;-62
2022/04/23 07:51:08;;;;;;;15.23;8.55;;;;;;;;;;5042443;28;20029;-62
2022/04/23 07:53:34;;;;;;;13.90;8.02;;;;;;;;;;5040421;28;20090;-62
2022/04/23 07:56:01;;;;;;;14.70;9.02;;;;;;;;;;5041610;28;20029;-62
2022/04/23 07:58:28;;;;;;;13.88;7.85;;;;;;;;;;5043081;28;20075;-63
2022/04/23 08:00:55;;;;;;;15.82;8.50;;;;;;;;;;5045423;28;20258;-63
2022/04/23 08:03:22;;;;;;;15.80;8.98;;;;;;;;;;5041738;28;20037;-63
2022/04/23 08:05:48;;;;;;;17.88;9.35;;;;;;;;;;5043701;28;20040;-63
2022/04/23 08:08:19;;;;;;;15.40;8.18;;;;;;;;;;5045126;28;20033;-64
2022/04/23 08:10:46;;;;;;;15.05;8.45;;;;;;;;;;5042779;28;20041;-63
2022/04/23 08:13:13;;;;;;;15.18;8.48;;;;;;;;;;5044097;28;20032;-64
2022/04/23 08:15:40;;;;;;;15.45;8.85;;;;;;;;;;5043775;28;20057;-64
2022/04/23 08:18:07;;;;;;;19.50;9.82;;;;;;;;;;5042793;28;20524;-64
2022/04/23 08:20:34;;;;;;;17.65;9.25;;;;;;;;;;5041221;28;20047;-64
2022/04/23 08:23:02;;;;;;;17.20;10.02;;;;;;;;;;5043428;28;20053;-63
2022/04/23 08:25:29;;;;;;;18.70;9.50;;;;;;;;;;5042771;28;20041;-63
2022/04/23 08:30:34;;;;;;;17.67;9.63;;;;;;;;;;5042961;28;20065;-63
2022/04/23 08:30:46;;;;;;;20.67;10.05;;;;;;;;;;5042294;28;20095;-62
2022/04/23 08:33:13;;;;;;;16.08;8.82;;;;;;;;;;5024271;28;20098;-62
2022/04/23 08:35:40;;;;;;;15.60;8.68;;;;;;;;;;5041355;28;20049;-63
2022/04/23 08:38:08;;;;;;;17.77;9.85;;;;;;;;;;5043139;28;20064;-63
2022/04/23 08:40:40;;;;;;;19.05;9.90;;;;;;;;;;5041550;28;20045;-63
2022/04/23 08:43:06;;;;;;;19.27;10.52;;;;;;;;;;5016893;28;20037;-63
2022/04/23 08:45:33;;;;;;;17.75;9.82;;;;;;;;;;5039777;28;20036;-63
2022/04/23 08:48:00;;;;;;;17.52;10.05;;;;;;;;;;5042598;28;20045;-63
2022/04/23 08:50:27;;;;;;;19.95;11.25;;;;;;;;;;5040301;28;20032;-63
2022/04/23 08:52:55;;;;;;;21.75;11.00;;;;;;;;;;5041678;28;20037;-63
2022/04/23 08:55:22;;;;;;;19.60;10.00;;;;;;;;;;5041094;28;20131;-63
2022/04/23 08:57:48;;;;;;;20.55;11.68;;;;;;;;;;5041075;28;20053;-63
2022/04/23 09:00:16;;;;;;;22.77;10.38;;;;;;;;;;5041294;28;20041;-63
2022/04/23 09:02:43;;;;;;;17.55;10.27;;;;;;;;;;5039672;28;20432;-64
2022/04/23 09:05:14;;;;;;;22.95;12.48;;;;;;;;;;5041849;28;20049;-63
2022/04/23 09:07:53;;;;;;;23.33;11.35;;;;;;;;;;5041049;28;20490;-63
2022/04/23 09:10:45;;;;;;;20.65;11.80;;;;;;;;;;5041122;28;20540;-63
2022/04/23 09:13:11;;;;;;;21.45;11.60;;;;;;;;;;5028726;28;20685;-62
2022/04/23 09:24:10;;;;;;;21.60;11.55;;;;;;;;;;5022334;28;20346;-62
2022/04/23 09:26:37;;;;;;;26.52;11.60;;;;;;;;;;5003533;28;20037;-63
2022/04/23 09:29:12;;;;;;;23.00;11.70;;;;;;;;;;5020915;28;20046;-62
2022/04/23 09:31:39;;;;;;;21.10;11.40;;;;;;;;;;5019655;28;20044;-62
2022/04/23 09:34:21;;;;;;;24.65;12.52;;;;;;;;;;5021855;28;20034;-62
2022/04/23 09:36:48;;;;;;;21.95;11.50;;;;;;;;;;5020754;28;20042;-63
2022/04/23 09:39:15;;;;;;;20.98;11.43;;;;;;;;;;5021048;28;20147;-63
2022/04/23 09:41:42;;;;;;;21.33;11.57;;;;;;;;;;5020340;28;20113;-63
2022/04/23 09:44:12;;;;;;;23.25;11.55;;;;;;;;;;5021517;28;20048;-63
2022/04/23 09:46:49;;;;;;;19.88;11.35;;;;;;;;;;5002546;28;20121;-63
2022/04/23 09:49:22;;;;;;;21.85;11.82;;;;;;;;;;5019459;28;20141;-63
2022/04/23 09:52:01;;;;;;;23.50;11.85;;;;;;;;;;4989072;28;20783;-63
2022/04/23 09:54:28;;;;;;;27.85;12.38;;;;;;;;;;5019972;28;20391;-63
2022/04/23 09:56:56;;;;;;;25.80;13.60;;;;;;;;;;5021763;28;20037;-62
2022/04/23 09:59:23;;;;;;;22.27;12.57;;;;;;;;;;5020614;28;20167;-63
2022/04/23 10:01:50;;;;;;;21.25;11.55;;;;;;;;;;5021270;28;20034;-62
2022/04/23 10:04:22;;;;;;;18.10;10.65;;;;;;;;;;5021338;28;20213;-62
2022/04/23 10:06:52;;;;;;;17.85;10.30;;;;;;;;;;5021186;28;20125;-62
2022/04/23 10:09:21;;;;;;;15.88;9.02;;;;;;;;;;5019596;28;20049;-62
2022/04/23 10:11:56;;;;;;;17.20;9.45;;;;;;;;;;5021272;28;20038;-63
2022/04/23 10:14:23;;;;;;;14.50;8.25;;;;;;;;;;5019930;28;20068;-63
2022/04/23 10:16:50;;;;;;;14.43;9.00;;;;;;;;;;5021946;28;20033;-63
2022/04/23 10:19:17;;;;;;;15.80;8.43;;;;;;;;;;5022107;28;20053;-63
2022/04/23 10:21:56;;;;;;;17.10;8.95;;;;;;;;;;5020775;28;20037;-63
2022/04/23 10:24:26;;;;;;;14.85;8.63;;;;;;;;;;5020336;28;20069;-63
2022/04/23 10:26:55;;;;;;;16.70;8.25;;;;;;;;;;5020637;28;20563;-64
2022/04/23 10:29:25;;;;;;;14.60;8.50;;;;;;;;;;5018910;28;20037;-63
2022/04/23 10:32:28;;;;;;;15.77;8.70;;;;;;;;;;5019598;28;20038;-63
2022/04/23 10:34:54;;;;;;;18.23;9.90;;;;;;;;;;4916090;29;20061;-63
2022/04/23 10:37:22;;;;;;;16.58;8.75;;;;;;;;;;5003255;28;20124;-62
2022/04/23 10:39:51;;;;;;;13.10;8.50;;;;;;;;;;5019362;28;20038;-62
2022/04/23 10:42:21;;;;;;;12.48;8.07;;;;;;;;;;5018577;28;20045;-62
2022/04/23 10:44:49;;;;;;;11.80;7.63;;;;;;;;;;5018941;28;20037;-61
2022/04/23 10:47:36;;;;;;;14.65;8.05;;;;;;;;;;5019832;28;20045;-62
2022/04/23 10:52:45;;;;;;;16.23;8.82;;;;;;;;;;5017636;28;20072;-62
2022/04/23 10:55:12;;;;;;;13.25;8.13;;;;;;;;;;5019342;28;20588;-62
2022/04/23 10:57:39;;;;;;;13.23;7.53;;;;;;;;;;5000841;28;20422;-63
2022/04/23 11:00:16;;;;;;;13.18;7.75;;;;;;;;;;5018434;28;20091;-62
2022/04/23 11:02:46;;;;;;;13.88;7.85;;;;;;;;;;5017968;28;20045;-63
2022/04/23 11:13:52;;;;;;;14.55;7.45;;;;;;;;;;5019297;28;20044;-63
2022/04/23 11:16:20;;;;;;;14.70;8.52;;;;;;;;;;5019112;28;20040;-63
2022/04/23 11:18:47;;;;;;;14.80;8.00;;;;;;;;;;5017804;28;20046;-63
2022/04/23 11:21:17;;;;;;;18.35;9.07;;;;;;;;;;5019502;28;20041;-63
2022/04/23 11:23:48;;;;;;;14.93;8.57;;;;;;;;;;5012870;28;20041;-63
2022/04/23 11:26:28;;;;;;;18.67;8.90;;;;;;;;;;5032636;28;20133;-63
2022/04/23 11:29:02;;;;;;;16.33;9.07;;;;;;;;;;5017265;28;20073;-63
2022/04/23 11:31:30;;;;;;;14.68;8.65;;;;;;;;;;5018366;28;20104;-63
2022/04/23 11:34:00;;;;;;;15.07;8.95;;;;;;;;;;5023513;28;20060;-63
2022/04/23 11:36:36;;;;;;;17.77;9.70;;;;;;;;;;5022692;28;21817;-63
2022/04/23 11:39:09;;;;;;;20.48;11.35;;;;;;;;;;5022327;28;21720;-63
2022/04/23 11:41:43;;;;;;;19.50;11.50;;;;;;;;;;5022987;28;20046;-63
2022/04/23 11:44:17;;;;;;;17.80;10.20;;;;;;;;;;5024119;28;20042;-63
2022/04/23 11:46:47;;;;;;;17.15;10.13;;;;;;;;;;5022346;28;20073;-63
2022/04/23 11:49:29;;;;;;;17.05;10.38;;;;;;;;;;5024569;28;20042;-63
2022/04/23 11:52:02;;;;;;;17.90;10.48;;;;;;;;;;5022612;28;20042;-63
2022/04/23 11:54:33;;;;;;;18.65;9.43;;;;;;;;;;5024534;28;20049;-63
2022/04/23 11:56:59;;;;;;;22.15;10.63;;;;;;;;;;5024995;28;20040;-63
2022/04/23 11:59:35;;;;;;;17.00;10.57;;;;;;;;;;5024483;28;20045;-63
2022/04/23 12:02:02;;;;;;;19.52;10.35;;;;;;;;;;5022569;28;20044;-63
2022/04/23 12:04:41;;;;;;;17.85;10.07;;;;;;;;;;5022053;28;20048;-62
2022/04/23 12:07:08;;;;;;;19.77;10.75;;;;;;;;;;5021527;28;20037;-63
2022/04/23 12:09:45;;;;;;;17.50;9.95;;;;;;;;;;5020870;28;20046;-63
2022/04/23 12:12:12;;;;;;;18.38;10.57;;;;;;;;;;5022788;28;20129;-63
2022/04/23 12:14:46;;;;;;;18.10;9.77;;;;;;;;;;5020687;28;20129;-63
2022/04/23 12:17:20;;;;;;;18.20;9.40;;;;;;;;;;5022521;28;20056;-62
2022/04/23 12:19:48;;;;;;;16.33;10.50;;;;;;;;;;5021391;28;20129;-63
2022/04/23 12:22:28;;;;;;;18.30;10.15;;;;;;;;;;5027229;28;20465;-63
2022/04/23 12:25:10;;;;;;;17.67;9.88;;;;;;;;;;5041336;28;20124;-63
2022/04/23 12:27:55;;;;;;;18.48;9.30;;;;;;;;;;5041814;28;20045;-63
2022/04/23 12:42:15;;;;;;;13.88;8.18;;;;;;;;;;5041177;28;20111;-63
2022/04/23 12:44:46;;;;;;;13.57;8.25;;;;;;;;;;5036359;28;20908;-62
2022/04/23 12:47:13;;;;;;;16.08;8.57;;;;;;;;;;5044227;28;20048;-62
2022/04/23 12:49:50;;;;;;;14.60;8.48;;;;;;;;;;5041966;28;20037;-63
2022/04/23 12:52:21;;;;;;;12.57;7.55;;;;;;;;;;5043283;28;20070;-63
2022/04/23 12:55:06;;;;;;;16.17;9.50;;;;;;;;;;5042161;28;20055;-62
2022/04/23 12:57:34;;;;;;;12.02;7.35;;;;;;;;;;5041286;28;20053;-62
2022/04/23 13:00:01;;;;;;;14.20;7.70;;;;;;;;;;5041745;28;20064;-62
2022/04/23 13:02:37;;;;;;;12.07;6.53;;;;;;;;;;5041403;28;20041;-65
2022/04/23 13:05:07;;;;;;;12.70;6.65;;;;;;;;;;5042002;28;20049;-64
2022/04/23 13:10:20;;;;;;;11.85;6.78;;;;;;;;;;5042135;28;20788;-64
2022/04/23 13:12:46;;;;;;;12.70;7.18;;;;;;;;;;5041777;28;20036;-64
2022/04/23 13:15:15;;;;;;;11.88;6.80;;;;;;;;;;5043164;28;20107;-63
2022/04/23 13:17:42;;;;;;;13.55;7.93;;;;;;;;;;5042499;28;20061;-63
2022/04/23 13:20:10;;;;;;;11.70;7.22;;;;;;;;;;5042476;28;20039;-64
2022/04/23 13:22:37;;;;;;;15.35;7.85;;;;;;;;;;5041396;28;20091;-63
2022/04/23 13:25:04;;;;;;;11.98;7.28;;;;;;;;;;5042258;28;20045;-63
2022/04/23 13:27:31;;;;;;;12.05;7.13;;;;;;;;;;5040438;28;20033;-63
2022/04/23 13:29:58;;;;;;;11.07;6.53;;;;;;;;;;5042102;28;20397;-63
2022/04/23 13:32:25;;;;;;;14.93;7.72;;;;;;;;;;5038249;28;20052;-63
2022/04/23 13:34:52;;;;;;;13.60;7.13;;;;;;;;;;5040592;28;20792;-63
2022/04/23 13:37:20;;;;;;;13.43;7.03;;;;;;;;;;5039215;28;20397;-63
2022/04/23 13:39:46;;;;;;;18.05;8.82;;;;;;;;;;5041612;28;20033;-63
2022/04/23 13:42:13;;;;;;;12.73;7.40;;;;;;;;;;5040171;28;20037;-63
2022/04/23 13:44:41;;;;;;;15.23;8.48;;;;;;;;;;5038604;28;20049;-61
2022/04/23 13:47:08;;;;;;;15.80;8.82;;;;;;;;;;5041215;28;20037;-61
2022/04/23 13:49:34;;;;;;;15.00;8.55;;;;;;;;;;5040192;28;20044;-63
2022/04/23 13:52:01;;;;;;;14.35;8.35;;;;;;;;;;5039984;28;20502;-63
2022/04/23 13:54:28;;;;;;;11.90;7.22;;;;;;;;;;5037041;28;20048;-63
2022/04/23 13:56:55;;;;;;;16.88;8.52;;;;;;;;;;5040978;28;20044;-63
2022/04/23 13:59:21;;;;;;;13.93;7.93;;;;;;;;;;5041026;28;20057;-62
2022/04/23 14:10:10;;;;;;;13.25;6.88;;;;;;;;;;5041341;28;20468;-64
2022/04/23 14:12:38;;;;;;;14.27;7.45;;;;;;;;;;5040682;28;20045;-61
2022/04/23 14:15:05;;;;;;;16.17;7.05;;;;;;;;;;5041351;28;20132;-63
2022/04/23 14:17:32;;;;;;;10.93;6.50;;;;;;;;;;5039378;28;20107;-63
2022/04/23 14:19:59;;;;;;;11.10;7.15;;;;;;;;;;5041193;28;20041;-63
2022/04/23 14:22:26;;;;;;;14.07;6.78;;;;;;;;;;5040128;28;20057;-63
2022/04/23 14:24:54;;;;;;;11.55;6.70;;;;;;;;;;5040056;28;20052;-62
2022/04/23 14:27:20;;;;;;;10.30;6.10;;;;;;;;;;5039772;28;20037;-65
2022/04/23 14:29:50;;;;;;;9.75;6.13;;;;;;;;;;5042822;28;20045;-63
2022/04/23 14:32:17;;;;;;;10.25;6.18;;;;;;;;;;5040388;28;20513;-62
2022/04/23 14:34:47;;;;;;;9.15;5.50;;;;;;;;;;5038194;28;20044;-64
2022/04/23 14:37:14;;;;;;;10.68;6.30;;;;;;;;;;5039726;28;20056;-62
2022/04/23 14:39:41;;;;;;;11.75;5.28;;;;;;;;;;5038197;28;20072;-63
2022/04/23 14:42:10;;;;;;;10.27;5.68;;;;;;;;;;5040350;28;20129;-64
2022/04/23 14:44:37;;;;;;;8.45;4.93;;;;;;;;;;5037969;28;20068;-63
2022/04/23 14:47:05;;;;;;;10.82;5.43;;;;;;;;;;5039331;28;20053;-63
2022/04/23 14:49:32;;;;;;;7.93;4.80;;;;;;;;;;5037825;28;20117;-63
2022/04/23 14:54:45;;;;;;;8.63;4.65;;;;;;;;;;5037709;28;20775;-63
2022/04/23 14:57:12;;;;;;;7.45;4.78;;;;;;;;;;5039359;28;20174;-64
2022/04/23 14:59:39;;;;;;;9.55;4.65;;;;;;;;;;5037845;28;20544;-63
2022/04/23 15:02:06;;;;;;;10.93;4.75;;;;;;;;;;5037056;28;20082;-64
2022/04/23 15:04:33;;;;;;;9.30;3.42;;;;;;;;;;5036293;28;20083;-63
2022/04/23 15:06:59;;;;;;;5.20;3.05;;;;;;;;;;5038173;28;20036;-63
2022/04/23 15:09:26;;;;;;;6.50;4.07;;;;;;;;;;5037647;28;20037;-64
2022/04/23 15:11:53;;;;;;;7.63;3.70;;;;;;;;;;5038272;28;20485;-64
2022/04/23 15:14:19;;;;;;;6.88;3.92;;;;;;;;;;5037498;28;20172;-64
2022/04/23 15:16:47;;;;;;;7.50;4.18;;;;;;;;;;5038506;28;20045;-64
2022/04/23 15:19:13;;;;;;;8.25;4.55;;;;;;;;;;5038232;28;20049;-65
2022/04/23 15:21:40;;;;;;;6.00;3.75;;;;;;;;;;5036751;28;20067;-65
2022/04/23 15:24:07;;;;;;;8.63;4.03;;;;;;;;;;5017716;28;20049;-64
2022/04/23 15:26:33;;;;;;;6.28;3.40;;;;;;;;;;5023430;28;20128;-64
2022/04/23 15:29:00;;;;;;;7.57;3.67;;;;;;;;;;5022954;28;20041;-64
2022/04/23 15:31:27;;;;;;;9.07;3.72;;;;;;;;;;5020620;28;20059;-64
2022/04/23 15:33:54;;;;;;;6.90;3.50;;;;;;;;;;5018725;28;20049;-64
2022/04/23 15:36:20;;;;;;;11.23;3.53;;;;;;;;;;5019774;28;20044;-64